York, SC (29745)

06:07 AM EDT on Σεπτέμβριος 30, 2014 (GMT -0400)
Hilton Pond Center for Piedmont Natural History | Change Station
CLOSE
Current Station
Personal Weather Stations
Location: York, SC
Elevation: 705 ft
Nearby Weather Stations
Active Advisory: Dense Fog Advisory

Elev 705 ft 34.97 °N, 81.22 °W | Updated 4 seconds ago

Ομίχλη
Ομίχλη
60.7 ° F
Feels Like 60.7 ° F
N
0.0
Ανεμος Μεταβλητός Ανεμος from ΒΒΑ
Gusts 0.0 mph

Σήμερα
High -- | Low -- ° F
--% Chance of Precip.
Yesterday
High -- | Low -- ° F
Precip. -- in
7:18 AM 7:10 PM
Μηνίσκος, 35% visible
Ατμοσφαιρική Πίεση 29.93 in
Ορατότητα 0.2 Μίλια
Σύννεφα
Σημείο Δρόσου 60 ° F
Υγρασία 97%
Rainfall 0.00 in
Snow Depth Not available.
Υπεριώδης ακτινοβολία (UV) Not available.
Pollen .40 out of 12
Air Quality Not available.
Flu Activity Not available.
METAR KUZA 300954Z AUTO 00000KT 1/4SM FG VV001 16/16 A2995 RMK AO2 SLP134 T01560156 $

More Conditions Fewer Conditions

Ατμοσφαιρική Πίεση 29.93 in
Ορατότητα 0.2 Μίλια
Σύννεφα
Σημείο Δρόσου 60 ° F
Υγρασία 97%
Rainfall 0.00 in
Snow Depth Not available.
Υπεριώδης ακτινοβολία (UV) Not available.
Pollen .40 out of 12
Air Quality Not available.
Flu Activity Not available.
METAR KUZA 300954Z AUTO 00000KT 1/4SM FG VV001 16/16 A2995 RMK AO2 SLP134 T01560156 $

More Conditions Fewer Conditions

10-Day Weather Forecast

Almanac

Αστρονομία

Sep. 30, 2014 Rise Set
Actual Time 7:18 AM EDT 7:10 PM EDT
Civil Twilight 6:53 AM EDT 7:35 PM EDT
Nautical Twilight 6:24 AM EDT 8:04 PM EDT
Astronomical Twilight 5:54 AM EDT 8:34 PM EDT
Moon 1:15 PM EDT 11:49 PM EDT
Length Of Visible Light 12h 41m
Διάρκεια ημέρας
11h 51m
Tomorrow will be 2m 11s shorter.
Μηνίσκος, 35% of the Moon is Illuminated
Σήμερα
Μηνίσκος
Oct 1
Πρώτο τέταρτο
Oct 8
Πανσέληνος
Oct 15
Τελευταίο τέταρτο
Oct 23
New

Today's Extremes

State Highs State Lows

Community

WunderPhotos

Upload Photos

1,757,606 photos uploaded!

Nearby

Air Quality

  Air Quality AQ Index Pollutant
Yesterday Καλή
OZONE
Τρίτη Καλή
OZONE

Snow Depth

Station Depth Elevation
No new snow has been reported.

Earthquake Activity

City Distance Mag. Time & Date
No recent earthquake activity has been reported nearby.
Minimum magnitude displayed is 2.5.

Coastal Water Temperatures

Τοποθεσία Θερμοκρασία
No Stations Reporting

Nearby Weather Stations